Terminal Aerodrome Forecast
Issued by NWS

Home | Current Version | Previous Version | Text Only | Print | Product List | Glossary On
Versions: 1 2 3 4 5 6 7 8 9 10 11 12 13 14 15 16 17 18 19 20 21 22 23 24 25 26 27
690
FTUS44 KFWD 281134
TAFAFW
TAF
KAFW 281134Z 2812/2912 18015KT P6SM SCT022 BKN250
      TEMPO 2812/2814 BKN022
     FM281500 19014KT P6SM SCT025 SCT035 BKN250
     FM290100 16016KT P6SM BKN040 BKN180
     FM290700 17018KT P6SM BKN015=

USA.gov is the U.S. government's official web portal to all federal, state and local government web resources and services.